createdAt,value
2022-10-04T00:02:06.605Z,72.58
2022-10-04T00:04:51.494Z,72.47
2022-10-04T00:07:26.696Z,72.17
2022-10-04T00:10:07.823Z,72.00
2022-10-04T00:12:58.589Z,71.93
2022-10-04T00:15:31.245Z,71.67
2022-10-04T00:18:29.160Z,71.77
2022-10-04T00:21:00.599Z,71.74
2022-10-04T00:23:44.791Z,71.50
2022-10-04T00:26:24.748Z,71.24
2022-10-04T00:28:53.520Z,71.41
2022-10-04T00:31:27.137Z,71.69
2022-10-04T00:34:08.624Z,71.47
2022-10-04T00:36:45.810Z,71.70
2022-10-04T00:39:28.000Z,71.78
2022-10-04T00:42:03.459Z,71.93
2022-10-04T00:44:50.192Z,71.65
2022-10-04T00:47:50.041Z,71.49
2022-10-04T00:50:33.037Z,71.36
2022-10-04T00:53:11.821Z,71.35
2022-10-04T00:56:05.184Z,70.73
2022-10-04T00:58:45.384Z,70.52
2022-10-04T01:01:13.117Z,70.47
2022-10-04T01:03:44.968Z,70.50
2022-10-04T01:06:15.209Z,70.18
2022-10-04T01:09:08.120Z,70.20
2022-10-04T01:11:43.083Z,70.09
2022-10-04T01:14:44.950Z,69.91
2022-10-04T01:17:12.812Z,70.17
2022-10-04T01:19:54.120Z,70.46
2022-10-04T01:22:40.504Z,70.62
2022-10-04T01:25:08.498Z,70.30
2022-10-04T01:27:44.475Z,70.38
2022-10-04T01:30:16.295Z,70.40
2022-10-04T01:32:45.469Z,70.47
2022-10-04T01:35:15.396Z,70.47
2022-10-04T01:37:43.023Z,70.73
2022-10-04T01:40:12.252Z,70.84
2022-10-04T01:42:51.237Z,70.80
2022-10-04T01:45:44.027Z,70.84
2022-10-04T01:48:26.359Z,71.42
2022-10-04T01:51:07.134Z,71.70
2022-10-04T01:54:04.985Z,71.72
2022-10-04T01:57:06.928Z,71.67
2022-10-04T02:00:04.756Z,71.39
2022-10-04T02:02:51.425Z,71.46
2022-10-04T02:05:40.425Z,71.29
2022-10-04T02:08:13.856Z,71.72
2022-10-04T02:10:43.835Z,71.86
2022-10-04T02:13:19.023Z,71.72
2022-10-04T02:15:49.218Z,71.81
2022-10-04T02:18:21.649Z,71.68
2022-10-04T02:20:52.452Z,71.58
2022-10-04T02:23:23.127Z,71.69
2022-10-04T02:25:51.989Z,71.69
2022-10-04T02:28:20.334Z,72.08
2022-10-04T02:31:11.928Z,72.30
2022-10-04T02:33:46.987Z,72.59
2022-10-04T02:36:16.084Z,72.46
2022-10-04T02:39:05.262Z,72.51
2022-10-04T02:41:50.980Z,72.24
2022-10-04T02:44:49.595Z,72.41
2022-10-04T02:47:44.327Z,72.61
2022-10-04T02:50:27.608Z,72.61
2022-10-04T02:53:18.350Z,72.62
2022-10-04T02:55:47.783Z,72.48
2022-10-04T02:58:21.306Z,72.40
2022-10-04T03:00:57.987Z,72.31
2022-10-04T03:03:30.182Z,72.64
2022-10-04T03:06:14.906Z,72.63
2022-10-04T03:08:59.930Z,72.61
2022-10-04T03:11:35.069Z,72.67
2022-10-04T03:14:07.956Z,72.74
2022-10-04T03:16:42.437Z,72.71
2022-10-04T03:19:13.562Z,72.63
2022-10-04T03:21:46.186Z,72.57
2022-10-04T03:24:37.517Z,73.15
2022-10-04T03:27:09.375Z,73.30
2022-10-04T03:29:43.260Z,73.26
2022-10-04T03:32:15.958Z,73.03
2022-10-04T03:34:51.377Z,73.08
2022-10-04T03:37:21.305Z,73.40
2022-10-04T03:39:55.324Z,73.56
2022-10-04T03:42:28.171Z,73.63
2022-10-04T03:45:02.037Z,74.17
2022-10-04T03:47:44.630Z,74.22
2022-10-04T03:50:34.467Z,74.38
2022-10-04T03:53:16.210Z,74.30
2022-10-04T03:55:45.887Z,74.12
2022-10-04T03:58:19.212Z,74.18
2022-10-04T04:01:06.300Z,74.60
2022-10-04T04:03:50.828Z,74.92
2022-10-04T04:06:20.778Z,75.09
2022-10-04T04:08:54.134Z,75.15
2022-10-04T04:11:29.523Z,75.19
2022-10-04T04:14:03.212Z,74.89
2022-10-04T04:16:31.543Z,75.22
2022-10-04T04:19:09.879Z,75.36
2022-10-04T04:21:38.467Z,75.55
2022-10-04T04:24:39.251Z,75.61
2022-10-04T04:27:10.477Z,75.74
2022-10-04T04:29:53.118Z,75.88
2022-10-04T04:32:36.476Z,75.73
2022-10-04T04:35:08.652Z,75.15
2022-10-04T04:37:37.094Z,74.69
2022-10-04T04:40:21.133Z,74.89
2022-10-04T04:42:50.723Z,74.70
2022-10-04T04:45:26.429Z,74.74
2022-10-04T04:47:57.278Z,74.88
2022-10-04T04:50:37.588Z,75.01
2022-10-04T04:53:27.084Z,74.91
2022-10-04T04:56:10.965Z,74.87
2022-10-04T04:58:46.598Z,74.92
2022-10-04T05:01:36.958Z,74.80
2022-10-04T05:04:13.703Z,74.91
2022-10-04T05:07:04.762Z,75.09
2022-10-04T05:09:38.587Z,74.87
2022-10-04T05:12:20.289Z,74.69
2022-10-04T05:14:53.912Z,74.65
2022-10-04T05:17:35.334Z,74.39
2022-10-04T05:20:05.045Z,74.35
2022-10-04T05:22:35.142Z,74.34
2022-10-04T05:25:09.846Z,74.36
2022-10-04T05:27:44.881Z,74.32
2022-10-04T05:30:40.927Z,74.46
2022-10-04T05:33:39.605Z,74.73
2022-10-04T05:36:38.617Z,74.59
2022-10-04T05:39:22.115Z,74.47
2022-10-04T05:41:56.445Z,74.32
2022-10-04T05:44:28.891Z,74.20
2022-10-04T05:47:08.941Z,74.19
2022-10-04T05:49:46.575Z,74.34
2022-10-04T05:52:36.477Z,74.21
2022-10-04T05:55:13.289Z,74.15
2022-10-04T05:57:40.908Z,74.09
2022-10-04T06:00:17.634Z,74.33
2022-10-04T06:03:00.489Z,74.14
2022-10-04T06:05:53.899Z,74.03
2022-10-04T06:08:36.804Z,73.70
2022-10-04T06:11:13.303Z,73.39
2022-10-04T06:13:59.694Z,73.40
2022-10-04T06:16:52.177Z,73.19
2022-10-04T06:19:53.200Z,72.98
2022-10-04T06:22:26.862Z,72.60
2022-10-04T06:25:03.106Z,72.27
2022-10-04T06:27:54.162Z,72.21
2022-10-04T06:30:22.161Z,72.05
2022-10-04T06:33:02.407Z,71.70
2022-10-04T06:35:36.170Z,71.21
2022-10-04T06:38:34.378Z,71.20
2022-10-04T06:41:05.888Z,70.69
2022-10-04T06:43:48.860Z,69.61
2022-10-04T06:46:28.917Z,68.93
2022-10-04T06:49:14.027Z,66.48
2022-10-04T06:51:53.477Z,64.40
2022-10-04T06:54:51.922Z,63.00
2022-10-04T06:57:40.912Z,62.83
2022-10-04T07:00:20.063Z,63.07
2022-10-04T07:03:09.688Z,64.22
2022-10-04T07:05:43.777Z,64.82
2022-10-04T07:08:33.988Z,64.69
2022-10-04T07:11:46.337Z,63.68
2022-10-04T07:14:20.490Z,57.41
2022-10-04T07:17:05.728Z,56.17
2022-10-04T07:20:00.635Z,56.23
2022-10-04T07:22:50.353Z,53.65
2022-10-04T07:25:30.825Z,52.05
2022-10-04T07:28:35.280Z,50.03
2022-10-04T07:31:28.607Z,50.74
2022-10-04T07:34:02.351Z,48.05
2022-10-04T07:36:46.676Z,45.56
2022-10-04T07:39:22.634Z,45.01
2022-10-04T07:42:06.012Z,45.69
2022-10-04T07:44:35.945Z,47.11
2022-10-04T07:47:22.150Z,49.38
2022-10-04T07:49:53.663Z,51.49
2022-10-04T07:52:39.961Z,53.16
2022-10-04T07:55:38.343Z,54.31
2022-10-04T07:58:37.072Z,55.19
2022-10-04T08:01:44.359Z,55.36
2022-10-04T08:04:30.763Z,53.67
2022-10-04T08:07:03.371Z,51.08
2022-10-04T08:09:34.053Z,46.78
2022-10-04T08:12:26.424Z,45.24
2022-10-04T08:15:25.250Z,42.56
2022-10-04T08:18:08.219Z,43.51
2022-10-04T08:20:54.093Z,44.09
2022-10-04T08:23:42.917Z,42.66
2022-10-04T08:26:13.725Z,43.05
2022-10-04T08:29:32.835Z,45.83
2022-10-04T08:32:12.551Z,46.06
2022-10-04T08:35:10.083Z,46.13
2022-10-04T08:38:03.037Z,43.16
2022-10-04T08:40:36.663Z,43.23
2022-10-04T08:43:29.657Z,41.90
2022-10-04T08:46:16.054Z,40.17
2022-10-04T08:49:08.471Z,41.33
2022-10-04T08:51:54.241Z,41.38
2022-10-04T08:54:24.914Z,39.55
2022-10-04T08:57:16.155Z,38.89
2022-10-04T09:00:07.127Z,39.26
2022-10-04T09:02:47.932Z,37.06
2022-10-04T09:05:26.670Z,36.93
2022-10-04T09:08:18.616Z,36.19
2022-10-04T09:10:57.715Z,36.43
2022-10-04T09:13:47.037Z,37.96
2022-10-04T09:16:39.400Z,38.53
2022-10-04T09:19:16.244Z,36.42
2022-10-04T09:22:22.533Z,37.99
2022-10-04T09:25:05.201Z,38.52
2022-10-04T09:27:55.113Z,38.50
2022-10-04T09:30:48.177Z,37.89
2022-10-04T09:33:16.199Z,38.73
2022-10-04T09:36:28.649Z,39.27
2022-10-04T09:39:30.693Z,38.70
2022-10-04T09:42:33.638Z,37.84
2022-10-04T09:45:16.306Z,37.05
2022-10-04T09:48:08.540Z,36.58
2022-10-04T09:51:14.208Z,38.46
2022-10-04T09:54:34.693Z,37.80
2022-10-04T09:57:31.344Z,37.61
2022-10-04T10:00:23.528Z,40.14
2022-10-04T10:03:15.590Z,38.58
2022-10-04T10:05:49.827Z,40.27
2022-10-04T10:08:51.262Z,39.81
2022-10-04T10:11:55.667Z,38.10
2022-10-04T10:15:07.140Z,40.18
2022-10-04T10:17:37.987Z,38.79
2022-10-04T10:20:30.154Z,38.13
2022-10-04T10:23:16.862Z,37.28
2022-10-04T10:26:12.295Z,37.73
2022-10-04T10:28:58.855Z,37.35
2022-10-04T10:31:55.371Z,35.82
2022-10-04T10:34:47.347Z,33.86
2022-10-04T10:37:37.086Z,35.56
2022-10-04T10:40:23.123Z,35.79
2022-10-04T10:43:18.470Z,34.23
2022-10-04T10:46:07.215Z,34.67
2022-10-04T10:49:03.950Z,34.76
2022-10-04T10:51:56.989Z,34.33
2022-10-04T10:54:46.482Z,34.53
2022-10-04T10:57:41.503Z,34.51
2022-10-04T11:00:22.394Z,35.04
2022-10-04T11:03:12.184Z,35.69
2022-10-04T11:06:09.518Z,36.00
2022-10-04T11:08:58.755Z,36.69
2022-10-04T11:12:07.490Z,35.19
2022-10-04T11:14:56.701Z,37.92
2022-10-04T11:17:56.448Z,36.79
2022-10-04T11:20:47.317Z,35.45
2022-10-04T11:23:49.236Z,34.30
2022-10-04T11:26:49.615Z,34.71
2022-10-04T11:29:26.605Z,35.83
2022-10-04T11:32:12.273Z,35.04
2022-10-04T11:35:18.792Z,33.85
2022-10-04T11:38:07.686Z,36.26
2022-10-04T11:40:44.100Z,37.77
2022-10-04T11:43:58.014Z,34.59
2022-10-04T11:46:50.466Z,34.37
2022-10-04T11:49:49.171Z,35.32
2022-10-04T11:52:54.445Z,35.41
2022-10-04T11:56:04.181Z,37.48
2022-10-04T11:59:00.414Z,38.75
2022-10-04T12:01:43.872Z,37.57
2022-10-04T12:04:29.760Z,37.87
2022-10-04T12:07:33.327Z,37.64
2022-10-04T12:10:19.710Z,37.57
2022-10-04T12:13:05.241Z,38.42
2022-10-04T12:15:36.251Z,40.54
2022-10-04T12:18:09.638Z,40.62
2022-10-04T12:21:02.888Z,40.18
2022-10-04T12:23:48.629Z,40.84
2022-10-04T12:27:04.143Z,40.86
2022-10-04T12:30:13.200Z,41.87
2022-10-04T12:33:03.543Z,42.95
2022-10-04T12:36:08.654Z,43.91
2022-10-04T12:38:42.445Z,45.73
2022-10-04T12:41:38.677Z,45.14
2022-10-04T12:44:32.587Z,44.77
2022-10-04T12:47:20.343Z,44.23
2022-10-04T12:50:06.550Z,43.71
2022-10-04T12:52:53.065Z,44.63
2022-10-04T12:55:58.348Z,44.27
2022-10-04T12:58:47.499Z,46.64
2022-10-04T13:01:27.707Z,46.12
2022-10-04T13:03:58.119Z,47.77
2022-10-04T13:06:59.566Z,48.32
2022-10-04T13:10:05.370Z,48.59
2022-10-04T13:13:14.096Z,47.19
2022-10-04T13:19:35.202Z,46.37
2022-10-04T13:22:08.909Z,46.39
2022-10-04T13:25:14.200Z,46.85
2022-10-04T13:28:02.928Z,46.53
2022-10-04T13:30:47.096Z,47.28
2022-10-04T13:33:43.140Z,47.77
2022-10-04T13:36:42.665Z,48.12
2022-10-04T13:39:33.711Z,47.80
2022-10-04T13:42:15.570Z,47.74
2022-10-04T13:44:49.998Z,47.97
2022-10-04T13:47:56.930Z,48.42
2022-10-04T13:50:45.686Z,48.31
2022-10-04T13:53:41.394Z,46.28
2022-10-04T13:56:36.946Z,47.66
2022-10-04T13:59:19.197Z,48.89
2022-10-04T14:01:55.723Z,47.91
2022-10-04T14:04:29.195Z,47.66
2022-10-04T14:07:13.741Z,48.70
2022-10-04T14:09:58.099Z,47.91
2022-10-04T14:12:38.643Z,49.04
2022-10-04T14:15:47.917Z,48.30
2022-10-04T14:18:27.638Z,47.65
2022-10-04T14:21:27.125Z,47.57
2022-10-04T14:24:19.698Z,48.96
2022-10-04T14:26:51.126Z,48.14
2022-10-04T14:29:45.205Z,47.80
2022-10-04T14:32:28.691Z,47.88
2022-10-04T14:35:01.004Z,48.94
2022-10-04T14:37:55.274Z,49.86
2022-10-04T14:40:56.522Z,49.53
2022-10-04T14:43:59.475Z,47.85
2022-10-04T14:46:51.664Z,46.91
2022-10-04T14:49:57.913Z,49.02
2022-10-04T14:52:45.581Z,48.27
2022-10-04T14:55:51.213Z,47.92
2022-10-04T14:58:21.563Z,49.15
2022-10-04T15:01:14.835Z,49.40
2022-10-04T15:04:04.995Z,49.18
2022-10-04T15:06:50.637Z,49.18
2022-10-04T15:09:46.129Z,49.32
2022-10-04T15:13:10.523Z,49.11
2022-10-04T15:16:19.039Z,49.60
2022-10-04T15:19:00.277Z,49.74
2022-10-04T15:21:44.831Z,49.94
2022-10-04T15:24:18.333Z,49.74
2022-10-04T15:26:49.935Z,50.44
2022-10-04T15:29:28.530Z,50.59
2022-10-04T15:32:15.995Z,51.59
2022-10-04T15:35:06.887Z,50.79
2022-10-04T15:37:40.226Z,51.05
2022-10-04T15:40:29.033Z,50.90
2022-10-04T15:43:13.294Z,50.15
2022-10-04T15:46:03.948Z,50.59
2022-10-04T15:48:50.320Z,50.29
2022-10-04T15:51:36.899Z,50.78
2022-10-04T15:54:35.685Z,51.74
2022-10-04T15:57:41.446Z,51.19
2022-10-04T16:00:20.210Z,50.74
2022-10-04T16:03:37.033Z,51.91
2022-10-04T16:06:04.866Z,51.71
2022-10-04T16:09:02.812Z,50.71
2022-10-04T16:11:55.229Z,51.61
2022-10-04T16:14:52.590Z,51.73
2022-10-04T16:17:23.021Z,51.83
2022-10-04T16:20:00.870Z,52.74
2022-10-04T16:22:32.450Z,52.02
2022-10-04T16:25:26.140Z,51.67
2022-10-04T16:28:05.568Z,52.07
2022-10-04T16:30:38.546Z,52.06
2022-10-04T16:33:22.402Z,51.59
2022-10-04T16:36:14.752Z,52.03
2022-10-04T16:39:07.897Z,52.07
2022-10-04T16:41:55.106Z,53.30
2022-10-04T16:44:32.528Z,54.85
2022-10-04T16:47:18.085Z,55.61
2022-10-04T16:49:57.095Z,56.97
2022-10-04T16:52:48.566Z,57.26
2022-10-04T16:55:31.187Z,57.45
2022-10-04T16:58:41.525Z,58.14
2022-10-04T17:01:25.361Z,59.34
2022-10-04T17:04:05.318Z,59.42
2022-10-04T17:06:54.830Z,59.22
2022-10-04T17:09:46.442Z,59.62
2022-10-04T17:12:19.010Z,59.31
2022-10-04T17:14:48.200Z,59.10
2022-10-04T17:17:38.026Z,59.77
2022-10-04T17:20:38.104Z,59.85
2022-10-04T17:23:38.303Z,59.95
2022-10-04T17:26:17.557Z,60.75
2022-10-04T17:28:59.524Z,60.69
2022-10-04T17:31:44.269Z,61.05
2022-10-04T17:34:49.350Z,61.95
2022-10-04T17:37:53.438Z,61.75
2022-10-04T17:40:43.200Z,62.15
2022-10-04T17:43:45.289Z,62.75
2022-10-04T17:46:24.543Z,63.50
2022-10-04T17:49:35.049Z,63.49
2022-10-04T17:52:31.224Z,63.41
2022-10-04T17:55:18.002Z,63.87
2022-10-04T17:57:53.981Z,63.59
2022-10-04T18:00:47.161Z,63.34
2022-10-04T18:03:23.217Z,63.29
2022-10-04T18:06:01.012Z,63.98
2022-10-04T18:08:53.463Z,64.46
2022-10-04T18:11:27.011Z,64.99
2022-10-04T18:14:07.231Z,65.12
2022-10-04T18:16:49.423Z,64.48
2022-10-04T18:19:51.338Z,64.33
2022-10-04T18:22:22.242Z,63.11
2022-10-04T18:25:14.832Z,62.98
2022-10-04T18:28:09.179Z,63.46
2022-10-04T18:31:00.255Z,63.32
2022-10-04T18:33:50.206Z,63.82
2022-10-04T18:36:24.973Z,62.81
2022-10-04T18:39:27.132Z,62.68
2022-10-04T18:42:08.252Z,62.60
2022-10-04T18:44:57.316Z,62.17
2022-10-04T18:47:38.111Z,62.36
2022-10-04T18:50:23.064Z,62.27
2022-10-04T18:53:14.743Z,62.40
2022-10-04T18:55:57.328Z,62.64
2022-10-04T18:59:16.377Z,62.60
2022-10-04T19:02:00.004Z,62.98
2022-10-04T19:04:57.342Z,63.15
2022-10-04T19:07:40.210Z,63.35
2022-10-04T19:10:28.229Z,63.64
2022-10-04T19:13:00.331Z,63.78
2022-10-04T19:15:46.672Z,64.29
2022-10-04T19:18:37.213Z,64.72
2022-10-04T19:21:24.879Z,65.01
2022-10-04T19:24:11.020Z,65.25
2022-10-04T19:26:44.763Z,65.57
2022-10-04T19:29:28.536Z,66.15
2022-10-04T19:32:12.986Z,65.89
2022-10-04T19:35:18.356Z,66.04
2022-10-04T19:38:29.410Z,66.51
2022-10-04T19:41:30.878Z,66.41
2022-10-04T19:44:56.256Z,66.19
2022-10-04T19:47:38.688Z,65.73
2022-10-04T19:50:18.177Z,65.87
2022-10-04T19:52:55.373Z,66.33
2022-10-04T19:55:47.377Z,66.64
2022-10-04T19:58:37.229Z,66.75
2022-10-04T20:01:16.621Z,66.51
2022-10-04T20:03:44.611Z,66.45
2022-10-04T20:06:26.872Z,66.62
2022-10-04T20:09:02.759Z,66.76
2022-10-04T20:11:48.406Z,66.79
2022-10-04T20:14:16.970Z,67.44
2022-10-04T20:16:48.277Z,67.80
2022-10-04T20:19:20.180Z,67.75
2022-10-04T20:21:48.273Z,68.10
2022-10-04T20:24:36.295Z,68.01
2022-10-04T20:27:08.978Z,67.94
2022-10-04T20:29:39.937Z,67.85
2022-10-04T20:32:08.827Z,68.24
2022-10-04T20:34:39.226Z,68.34
2022-10-04T20:37:10.964Z,68.50
2022-10-04T20:39:41.562Z,68.73
2022-10-04T20:42:32.217Z,69.00
2022-10-04T20:45:01.989Z,69.02
2022-10-04T20:47:36.079Z,69.15
2022-10-04T20:50:12.745Z,69.18
2022-10-04T20:52:46.356Z,69.28
2022-10-04T20:55:40.163Z,69.32
2022-10-04T20:58:35.659Z,69.22
